Thistle, Utah
Current Conditions -  °F | °C
As of 12:59 PM on Monday 22 Dec 2014 (Local Time) from KPVU Reporting Station
Light Rain Light Rain  
Wind Chill:   Ceiling: 3200
Heat Index:   Visibility: 10mi
Dew Point:   Wind: 5mph
Humidity: 87%   Direction: NA
Pressure: 29.99"   Gusts: NA
Location:  39.7497°N, 111.442°W
Report Text: KPVU 221959Z VRB04KT 10SM -RA BR SCT015 BKN032 OVC055 05/03 A2999
Loading
Personal Weather Stations






























Interactive Weather Map New forecast layout! Learn more

10-Day Weather Forecast

Advertisements
Track Severe Weather on mobile